Welcome to Northern Hawkes Bay. New Zealand.
PWS Header
      nz Flag



Hit Counter


W3C Valid W3C Valid logo


    Wairoa

Select any of the Stations below to visit their websites.










Historic Data from Weather Underground
Select the location of interest below. Wairoa is the default. Please have patience, this Data is slow to load in.
Northern Hawkes Bay Historical Data
Daily Summary for May 18, 2018 Units:  English    Metric   Both
« Previous Day
Next Day »
Daily Weekly Monthly Yearly Custom
  High: Low: Average:
Temperature: 66 °F 43.7 °F 55 °F
Dew Point: 52.2 °F 42.1 °F 46.9 °F
Humidity: 96% 57% 75%
Wind Speed: 13mph 0mph 4.5mph
Wind Gust: 21.3mph - -
Wind- - NNW
Pressure: 29.9 in 29.8 in -
Precipitation: 0 in    
Historical Graphs
 
 
Tabular Data for May 18, 2018
Time Temperature Dew Point Pressure Wind Wind Speed Wind Gust Humidity Rainfall Rate (Hourly) solar
00:02 48 °F 44.1 °F 29.8 in NW 0.7 mph 3.8 mph 86% 0 in 0 W/m2
00:07 47.7 °F 43.7 °F 29.8 in NW 2.2 mph 3.1 mph 86% 0 in 0 W/m2
00:12 47.3 °F 43.5 °F 29.8 in NW 1.6 mph 3.8 mph 87% 0 in 0 W/m2
00:17 46.9 °F 43.5 °F 29.8 in Calm   3.8 mph 88% 0 in 0 W/m2
00:22 46.9 °F 43.5 °F 29.8 in Calm   3.1 mph 88% 0 in 0 W/m2
00:27 46.8 °F 43.3 °F 29.8 in NW 3.1 mph 4.5 mph 88% 0 in 0 W/m2
00:32 46.6 °F 43.5 °F 29.8 in NNW 3.1 mph 4.5 mph 89% 0 in 0 W/m2
00:37 46.6 °F 43.5 °F 29.8 in NNW 2.2 mph 5.4 mph 89% 0 in 0 W/m2
00:42 46.9 °F 43.9 °F 29.8 in NNW 2.2 mph 6 mph 89% 0 in 0 W/m2
00:47 46.9 °F 43.9 °F 29.8 in NW 3.1 mph 6 mph 89% 0 in 0 W/m2
00:52 46.8 °F 43.7 °F 29.8 in NW 3.8 mph 6 mph 89% 0 in 0 W/m2
00:57 46.8 °F 43.7 °F 29.8 in NW 3.8 mph 6 mph 89% 0 in 0 W/m2
01:02 46.4 °F 43.3 °F 29.8 in NW 3.1 mph 5.4 mph 89% 0 in 0 W/m2
01:07 46.4 °F 43.3 °F 29.8 in NW 1.6 mph 4.5 mph 89% 0 in 0 W/m2
01:12 46 °F 43.3 °F 29.8 in NW 3.1 mph 4.5 mph 90% 0 in 0 W/m2
01:17 46 °F 43.5 °F 29.8 in NW 3.1 mph 6 mph 91% 0 in 0 W/m2
01:22 46 °F 43.5 °F 29.8 in NW 3.1 mph 6 mph 91% 0 in 0 W/m2
01:27 46 °F 43.5 °F 29.8 in NW 3.8 mph 6 mph 91% 0 in 0 W/m2
01:32 46 °F 43.5 °F 29.8 in NW 3.8 mph 6 mph 91% 0 in 0 W/m2
01:37 45.9 °F 43.3 °F 29.8 in NNW 2.2 mph 6 mph 91% 0 in 0 W/m2
01:42 46 °F 43.5 °F 29.8 in NNW 3.1 mph 5.4 mph 91% 0 in 0 W/m2
01:47 46 °F 43.5 °F 29.8 in NNW 3.8 mph 5.4 mph 91% 0 in 0 W/m2
01:52 46 °F 43.5 °F 29.8 in NW 3.1 mph 6.9 mph 91% 0 in 0 W/m2
01:57 46 °F 43.5 °F 29.8 in NNW 3.8 mph 6.9 mph 91% 0 in 0 W/m2
02:02 46.4 °F 43.5 °F 29.8 in NNW 3.8 mph 6.9 mph 90% 0 in 0 W/m2
02:07 46.4 °F 43.5 °F 29.8 in NNW 3.1 mph 6.9 mph 90% 0 in 0 W/m2
02:12 46 °F 43.3 °F 29.8 in NNW 2.2 mph 6 mph 90% 0 in 0 W/m2
02:17 46 °F 43.3 °F 29.8 in North 2.2 mph 3.8 mph 90% 0 in 0 W/m2
02:22 45.9 °F 43.3 °F 29.8 in NNW 3.1 mph 4.5 mph 91% 0 in 0 W/m2
02:27 45.7 °F 43.2 °F 29.8 in NNW 2.2 mph 4.5 mph 91% 0 in 0 W/m2
02:32 45.7 °F 43.2 °F 29.8 in NNW 1.6 mph 5.4 mph 91% 0 in 0 W/m2
02:37 45.9 °F 43.3 °F 29.8 in NNW 2.2 mph 5.4 mph 91% 0 in 0 W/m2
02:42 46 °F 43.5 °F 29.8 in North 2.2 mph 5.4 mph 91% 0 in 0 W/m2
02:47 45.9 °F 43.3 °F 29.8 in North 3.1 mph 5.4 mph 91% 0 in 0 W/m2
02:52 46 °F 43.5 °F 29.8 in NNW 3.8 mph 6.9 mph 91% 0 in 0 W/m2
02:57 46 °F 43.5 °F 29.8 in NNW 3.8 mph 6.9 mph 91% 0 in 0 W/m2
03:02 46 °F 43.5 °F 29.8 in NNW 2.2 mph 6.9 mph 91% 0 in 0 W/m2
03:07 45.9 °F 43.2 °F 29.8 in NNW 2.2 mph 5.4 mph 90% 0 in 0 W/m2
03:12 45.7 °F 43 °F 29.8 in North 2.2 mph 4.5 mph 90% 0 in 0 W/m2
03:17 45.7 °F 43.2 °F 29.8 in NNW 2.2 mph 3.8 mph 91% 0 in 0 W/m2
03:22 45.5 °F 43 °F 29.8 in NW 3.1 mph 5.4 mph 91% 0 in 0 W/m2
03:39 44.1 °F 42.3 °F 29.8 in NW 2.2 mph 3.8 mph 93% 0 in 0 W/m2
03:44 43.9 °F 42.3 °F 29.8 in NW 3.8 mph 4.5 mph 94% 0 in 0 W/m2
03:49 43.9 °F 42.3 °F 29.8 in NW 2.2 mph 5.4 mph 94% 0 in 0 W/m2
03:54 43.9 °F 42.4 °F 29.8 in NW 2.2 mph 5.4 mph 95% 0 in 0 W/m2
03:59 43.7 °F 42.4 °F 29.8 in NW 3.1 mph 4.5 mph 95% 0 in 0 W/m2
04:04 43.7 °F 42.4 °F 29.8 in NW 3.1 mph 4.5 mph 95% 0 in 0 W/m2
04:09 43.7 °F 42.4 °F 29.8 in NW 3.1 mph 4.5 mph 95% 0 in 0 W/m2
04:14 43.7 °F 42.6 °F 29.8 in NW 4.5 mph 5.4 mph 96% 0 in 0 W/m2
04:19 43.9 °F 42.8 °F 29.8 in NW 3.1 mph 5.4 mph 96% 0 in 0 W/m2
04:24 43.9 °F 42.8 °F 29.8 in NW 3.1 mph 5.4 mph 96% 0 in 0 W/m2
04:29 44.1 °F 43 °F 29.8 in NNW 4.5 mph 5.4 mph 96% 0 in 0 W/m2
04:34 44.6 °F 43.3 °F 29.8 in NNW 3.1 mph 7.6 mph 95% 0 in 0 W/m2
04:39 45.1 °F 43.5 °F 29.8 in North 3.8 mph 7.6 mph 94% 0 in 0 W/m2
04:44 45.5 °F 43.9 °F 29.8 in NNW 3.8 mph 7.6 mph 94% 0 in 0 W/m2
04:49 45.7 °F 43.9 °F 29.8 in NNW 3.8 mph 6.9 mph 93% 0 in 0 W/m2
04:54 45.7 °F 43.5 °F 29.8 in NW 4.5 mph 7.6 mph 92% 0 in 0 W/m2
04:59 45.7 °F 43.2 °F 29.8 in NW 3.8 mph 7.6 mph 91% 0 in 0 W/m2
05:04 45.7 °F 43.2 °F 29.8 in NNW 4.5 mph 7.6 mph 91% 0 in 0 W/m2
05:09 46 °F 43.5 °F 29.8 in NNW 3.8 mph 8.3 mph 91% 0 in 0 W/m2
05:14 45.9 °F 43.2 °F 29.8 in NNW 3.8 mph 8.3 mph 90% 0 in 0 W/m2
05:19 45.5 °F 42.6 °F 29.8 in NNW 4.5 mph 6.9 mph 90% 0 in 0 W/m2
05:24 45.5 °F 42.6 °F 29.8 in NNW 5.4 mph 7.6 mph 90% 0 in 0 W/m2
05:29 45.5 °F 43 °F 29.8 in NNW 6.9 mph 9.2 mph 91% 0 in 0 W/m2
05:34 45.3 °F 43 °F 29.8 in NNW 4.5 mph 9.2 mph 91% 0 in 0 W/m2
05:39 45.3 °F 43 °F 29.8 in NNW 4.5 mph 9.2 mph 91% 0 in 0 W/m2
05:44 44.8 °F 42.3 °F 29.8 in NNW 3.1 mph 8.3 mph 91% 0 in 0 W/m2
05:49 44.2 °F 42.1 °F 29.8 in NW 5.4 mph 6.9 mph 92% 0 in 0 W/m2
05:54 44.1 °F 42.3 °F 29.8 in NW 6 mph 9.2 mph 93% 0 in 0 W/m2
05:59 44.6 °F 42.6 °F 29.8 in NNW 4.5 mph 9.2 mph 93% 0 in 0 W/m2
06:04 45 °F 43.2 °F 29.8 in NNW 5.4 mph 9.2 mph 93% 0 in 0 W/m2
06:09 45 °F 43.2 °F 29.8 in NNW 5.4 mph 9.8 mph 93% 0 in 0 W/m2
06:14 45.1 °F 43 °F 29.8 in NNW 6 mph 10.7 mph 92% 0 in 0 W/m2
06:19 45.5 °F 43.3 °F 29.8 in NNW 4.5 mph 12.1 mph 92% 0 in 0 W/m2
06:24 45.7 °F 43.2 °F 29.8 in NNW 8.3 mph 12.1 mph 91% 0 in 0 W/m2
06:29 45.9 °F 43.3 °F 29.8 in NW 6 mph 11.4 mph 91% 0 in 0 W/m2
06:34 45.9 °F 43.2 °F 29.9 in NW 6.9 mph 11.4 mph 90% 0 in 0 W/m2
06:39 45.9 °F 43.2 °F 29.9 in NW 3.8 mph 9.8 mph 90% 0 in 0 W/m2
06:44 45.9 °F 42.8 °F 29.9 in NNW 4.5 mph 8.3 mph 89% 0 in 0 W/m2
06:49 45.9 °F 42.8 °F 29.9 in North 2.2 mph 6.9 mph 89% 0 in 0 W/m2
06:54 45.7 °F 42.6 °F 29.9 in North 3.8 mph 6 mph 89% 0 in 0 W/m2
06:59 45.5 °F 42.6 °F 29.9 in NNW 3.8 mph 7.6 mph 90% 0 in 0 W/m2
07:04 45.3 °F 42.6 °F 29.9 in NW 4.5 mph 7.6 mph 90% 0 in 0 W/m2
07:09 45.1 °F 42.6 °F 29.9 in NW 3.8 mph 6.9 mph 91% 0 in 0 W/m2
07:14 44.8 °F 42.3 °F 29.9 in NW 5.4 mph 8.3 mph 91% 0 in 2 W/m2
07:19 44.4 °F 42.4 °F 29.9 in NW 6 mph 8.3 mph 93% 0 in 5 W/m2
07:24 44.2 °F 42.3 °F 29.9 in NW 6.9 mph 9.2 mph 93% 0 in 7 W/m2
07:29 44.4 °F 42.8 °F 29.9 in NW 6 mph 9.2 mph 94% 0 in 37 W/m2
07:34 45 °F 43.2 °F 29.9 in NNW 4.5 mph 9.2 mph 93% 0 in 47 W/m2
07:39 45.5 °F 43.3 °F 29.9 in NNW 4.5 mph 9.8 mph 92% 0 in 60 W/m2
07:44 45.9 °F 43.7 °F 29.9 in NNW 6 mph 9.8 mph 92% 0 in 71 W/m2
07:49 46.4 °F 43.5 °F 29.9 in NNW 5.4 mph 10.7 mph 90% 0 in 83 W/m2
07:54 46.8 °F 43.7 °F 29.9 in NNW 6 mph 10.7 mph 89% 0 in 93 W/m2
07:59 47.1 °F 43.9 °F 29.9 in NNW 6 mph 10.7 mph 88% 0 in 103 W/m2
08:04 47.3 °F 43.9 °F 29.9 in NNW 5.4 mph 10.7 mph 88% 0 in 111 W/m2
08:09 47.5 °F 43.9 °F 29.9 in NW 7.6 mph 10.7 mph 87% 0 in 121 W/m2
08:14 48 °F 44.2 °F 29.9 in NNW 4.5 mph 9.8 mph 87% 0 in 130 W/m2
08:19 48.6 °F 44.6 °F 29.9 in NNW 5.4 mph 9.2 mph 86% 0 in 139 W/m2
08:24 48.7 °F 44.4 °F 29.9 in NNW 4.5 mph 9.2 mph 85% 0 in 147 W/m2
08:29 49.5 °F 45.1 °F 29.9 in NNW 5.4 mph 9.2 mph 85% 0 in 156 W/m2
08:34 50.2 °F 45.1 °F 29.9 in NNW 4.5 mph 7.6 mph 83% 0 in 165 W/m2
08:39 50.4 °F 45.1 °F 29.9 in NNW 4.5 mph 7.6 mph 82% 0 in 173 W/m2
08:44 50.5 °F 45.3 °F 29.9 in NNW 3.8 mph 7.6 mph 82% 0 in 182 W/m2
08:49 51.4 °F 45.9 °F 29.9 in NNW 5.4 mph 9.2 mph 81% 0 in 191 W/m2
08:54 51.6 °F 45.7 °F 29.9 in North 4.5 mph 9.2 mph 80% 0 in 198 W/m2
08:59 52.2 °F 45.9 °F 29.9 in NNW 4.5 mph 9.2 mph 79% 0 in 206 W/m2
09:04 52.7 °F 46 °F 29.9 in NNW 5.4 mph 9.2 mph 78% 0 in 213 W/m2
09:09 53.1 °F 46.4 °F 29.9 in NNW 5.4 mph 9.8 mph 78% 0 in 220 W/m2
09:14 53.2 °F 46.2 °F 29.9 in NNW 5.4 mph 9.8 mph 77% 0 in 226 W/m2
09:19 53.4 °F 46.4 °F 29.9 in NW 5.4 mph 9.8 mph 77% 0 in 230 W/m2
09:24 53.6 °F 46.6 °F 29.9 in NW 4.5 mph 9.8 mph 77% 0 in 201 W/m2
09:29 54.1 °F 47.1 °F 29.9 in NNW 6.9 mph 10.7 mph 77% 0 in 150 W/m2
09:34 54.3 °F 47.3 °F 29.9 in NNW 4.5 mph 10.7 mph 77% 0 in 71 W/m2
09:39 54.9 °F 47.5 °F 29.9 in NNW 3.8 mph 10.7 mph 76% 0 in 61 W/m2
09:44 56.1 °F 48.4 °F 29.9 in North 4.5 mph 8.3 mph 75% 0 in 59 W/m2
09:49 57.2 °F 48.9 °F 29.9 in North 4.5 mph 8.3 mph 74% 0 in 60 W/m2
09:54 58.5 °F 49.5 °F 29.9 in NNW 4.5 mph 7.6 mph 72% 0 in 63 W/m2
09:59 59.2 °F 49.5 °F 29.9 in NNW 6 mph 9.8 mph 70% 0 in 66 W/m2
10:04 58.8 °F 49.1 °F 29.9 in NNW 6.9 mph 10.7 mph 70% 0 in 63 W/m2
10:09 58.8 °F 49.8 °F 29.9 in NNW 5.4 mph 10.7 mph 72% 0 in 59 W/m2
10:25 59.9 °F 50.2 °F 29.9 in North 6 mph 9.8 mph 70% 0 in 62 W/m2
10:30 60.4 °F 50.5 °F 29.9 in NNW 4.5 mph 9.2 mph 70% 0 in 65 W/m2
10:35 61.7 °F 51.1 °F 29.9 in North 7.6 mph 9.2 mph 68% 0 in 68 W/m2
10:40 61.7 °F 50.5 °F 29.9 in North 4.5 mph 9.8 mph 67% 0 in 94 W/m2
10:46 61.9 °F 50.4 °F 29.9 in NNW 6 mph 9.8 mph 66% 0 in 158 W/m2
10:51 62.1 °F 50.5 °F 29.9 in NNW 6.9 mph 10.7 mph 66% 0 in 211 W/m2
10:56 62.6 °F 49.8 °F 29.9 in NNW 4.5 mph 10.7 mph 63% 0 in 253 W/m2
11:01 63.1 °F 49.8 °F 29.9 in NNW 4.5 mph 10.7 mph 62% 0 in 245 W/m2
11:06 63.7 °F 50.4 °F 29.9 in NNW 3.8 mph 9.8 mph 62% 0 in 280 W/m2
11:11 64.4 °F 51.4 °F 29.9 in NNW 6 mph 9.8 mph 63% 0 in 279 W/m2
11:16 64.6 °F 51.6 °F 29.9 in NNW 3.8 mph 9.8 mph 63% 0 in 278 W/m2
11:21 64.9 °F 52.2 °F 29.9 in NNW 3.8 mph 13 mph 63% 0 in 276 W/m2
11:26 64.9 °F 51.6 °F 29.9 in NNW 4.5 mph 13.6 mph 62% 0 in 272 W/m2
11:31 66 °F 51.3 °F 29.9 in North 6.9 mph 13.6 mph 59% 0 in 235 W/m2
11:36 65.7 °F 51.1 °F 29.9 in NNW 3.8 mph 11.4 mph 59% 0 in 157 W/m2
11:41 64.9 °F 51.3 °F 29.9 in NNW 6 mph 11.4 mph 61% 0 in 131 W/m2
11:46 64.2 °F 50.9 °F 29.9 in NNW 4.5 mph 9.8 mph 62% 0 in 121 W/m2
11:51 63.9 °F 50.5 °F 29.9 in NNW 6.9 mph 10.7 mph 62% 0 in 121 W/m2
11:56 63.7 °F 50.4 °F 29.9 in NNW 3.1 mph 11.4 mph 62% 0 in 117 W/m2
12:01 63.5 °F 50.4 °F 29.9 in NNW 3.8 mph 11.4 mph 62% 0 in 117 W/m2
12:06 63.5 °F 50.7 °F 29.9 in NNW 3.1 mph 9.2 mph 63% 0 in 115 W/m2
12:11 63.5 °F 50.7 °F 29.9 in NNW 3.1 mph 8.3 mph 63% 0 in 112 W/m2
12:16 63.5 °F 51.1 °F 29.9 in NNW 3.8 mph 9.2 mph 64% 0 in 107 W/m2
12:21 63.3 °F 51.1 °F 29.9 in NNW 4.5 mph 9.2 mph 64% 0 in 110 W/m2
12:26 63.3 °F 51.4 °F 29.9 in North 3.8 mph 8.3 mph 65% 0 in 118 W/m2
12:31 63.3 °F 51.4 °F 29.9 in North 5.4 mph 8.3 mph 65% 0 in 128 W/m2
12:36 63.1 °F 51.3 °F 29.9 in NNW 3.8 mph 8.3 mph 65% 0 in 126 W/m2
12:41 63.1 °F 50.7 °F 29.9 in NNW 4.5 mph 8.3 mph 64% 0 in 124 W/m2
12:46 63.1 °F 51.3 °F 29.9 in NW 6 mph 7.6 mph 65% 0 in 119 W/m2
12:51 63.1 °F 51.3 °F 29.9 in NNW 3.1 mph 8.3 mph 65% 0 in 117 W/m2
12:56 63.1 °F 51.3 °F 29.9 in NNW 2.2 mph 8.3 mph 65% 0 in 114 W/m2
13:01 63.1 °F 50.7 °F 29.9 in NNW 6.9 mph 10.7 mph 64% 0 in 114 W/m2
13:06 63.1 °F 50.7 °F 29.9 in NNW 3.8 mph 10.7 mph 64% 0 in 117 W/m2
13:11 63.1 °F 50.7 °F 29.9 in NNW 3.1 mph 10.7 mph 64% 0 in 123 W/m2
13:16 63.5 °F 51.1 °F 29.9 in NW 4.5 mph 7.6 mph 64% 0 in 125 W/m2
13:21 63.5 °F 51.1 °F 29.9 in NNW 1.6 mph 6.9 mph 64% 0 in 116 W/m2
13:26 63.7 °F 51.3 °F 29.9 in NNW 3.8 mph 6.9 mph 64% 0 in 107 W/m2
13:31 63.7 °F 50.4 °F 29.9 in NNW 3.1 mph 6.9 mph 62% 0 in 101 W/m2
13:36 63.7 °F 50.4 °F 29.9 in North 2.2 mph 6.9 mph 62% 0 in 99 W/m2
13:41 63.9 °F 51.1 °F 29.9 in North 3.1 mph 6 mph 63% 0 in 100 W/m2
13:46 63.7 °F 50.9 °F 29.9 in NNW 2.2 mph 6 mph 63% 0 in 97 W/m2
13:51 63.7 °F 50.9 °F 29.9 in NNW 1.6 mph 6 mph 63% 0 in 92 W/m2
13:56 63.7 °F 51.3 °F 29.9 in NNW 2.2 mph 4.5 mph 64% 0 in 81 W/m2
14:01 63.5 °F 51.1 °F 29.9 in NNW 2.2 mph 6 mph 64% 0 in 69 W/m2
14:06 63.3 °F 51.4 °F 29.9 in NNW 1.6 mph 6 mph 65% 0 in 58 W/m2
14:11 63 °F 51.1 °F 29.9 in NNW 3.1 mph 5.4 mph 65% 0 in 50 W/m2
14:16 62.8 °F 51.3 °F 29.9 in NNW 2.2 mph 5.4 mph 66% 0 in 45 W/m2
14:21 62.6 °F 51.1 °F 29.9 in North 3.8 mph 6 mph 66% 0 in 43 W/m2
14:26 62.4 °F 51.3 °F 29.9 in NNW 3.1 mph 6 mph 67% 0 in 43 W/m2
14:31 62.4 °F 51.6 °F 29.9 in NNW 3.8 mph 6 mph 68% 0 in 43 W/m2
14:36 62.2 °F 51.6 °F 29.9 in NNW 3.8 mph 6.9 mph 68% 0 in 44 W/m2
14:41 62.2 °F 51.3 °F 29.9 in NNW 5.4 mph 8.3 mph 67% 0 in 41 W/m2
14:46 62.1 °F 51.4 °F 29.9 in NNW 6 mph 8.3 mph 68% 0 in 38 W/m2
14:51 62.2 °F 51.3 °F 29.9 in NNW 5.4 mph 11.4 mph 67% 0 in 35 W/m2
14:56 62.2 °F 50.7 °F 29.9 in NNW 5.4 mph 11.4 mph 66% 0 in 34 W/m2
15:01 62.1 °F 51.1 °F 29.9 in NNW 4.5 mph 9.8 mph 67% 0 in 33 W/m2
15:06 62.1 °F 50.5 °F 29.9 in NNW 4.5 mph 9.2 mph 66% 0 in 30 W/m2
15:11 62.1 °F 50.2 °F 29.9 in NNW 5.4 mph 10.7 mph 65% 0 in 30 W/m2
15:16 62.2 °F 49.8 °F 29.9 in NNW 4.5 mph 10.7 mph 64% 0 in 28 W/m2
15:21 62.2 °F 49.8 °F 29.9 in NNW 8.3 mph 13 mph 64% 0 in 26 W/m2
15:26 62.4 °F 49.6 °F 29.9 in NNW 6.9 mph 13 mph 63% 0 in 25 W/m2
15:31 62.6 °F 48.9 °F 29.9 in NW 6 mph 13.6 mph 61% 0 in 24 W/m2
15:36 62.4 °F 49.6 °F 29.9 in NW 5.4 mph 13.6 mph 63% 0 in 23 W/m2
15:41 62.4 °F 49.6 °F 29.9 in NNW 7.6 mph 12.1 mph 63% 0 in 23 W/m2
15:46 62.4 °F 49.6 °F 29.9 in NNW 6.9 mph 12.1 mph 63% 0 in 23 W/m2
15:51 62.2 °F 49.5 °F 29.9 in NNW 9.8 mph 13 mph 63% 0 in 24 W/m2
15:56 62.6 °F 49.5 °F 29.9 in NNW 8.3 mph 14.5 mph 62% 0 in 22 W/m2
16:01 62.6 °F 49.5 °F 29.9 in NW 7.6 mph 14.5 mph 62% 0 in 20 W/m2
16:06 62.8 °F 49.1 °F 29.9 in NW 9.2 mph 13.6 mph 61% 0 in 17 W/m2
16:11 63 °F 49.3 °F 29.9 in NNW 4.5 mph 18.3 mph 61% 0 in 13 W/m2
16:16 63 °F 49.3 °F 29.9 in NW 5.4 mph 18.3 mph 61% 0 in 12 W/m2
16:21 63.1 °F 49.5 °F 29.9 in NW 5.4 mph 11.4 mph 61% 0 in 26 W/m2
16:26 64 °F 49.8 °F 29.9 in NW 6 mph 10.7 mph 60% 0 in 26 W/m2
16:31 64.8 °F 49.6 °F 29.9 in NW 8.3 mph 12.1 mph 58% 0 in 26 W/m2
16:36 65.1 °F 49.5 °F 29.9 in NW 8.3 mph 13 mph 57% 0 in 25 W/m2
16:55 63.3 °F 49.3 °F 29.9 in NW 10.7 mph 20.6 mph 60% 0 in 3 W/m2
17:00 63.1 °F 48.6 °F 29.9 in NNW 10.7 mph 20.6 mph 59% 0 in 1 W/m2
17:05 63.1 °F 48.6 °F 29.9 in NW 13 mph 21.3 mph 59% 0 in 0 W/m2
17:10 63 °F 48.4 °F 29.9 in NNW 12.1 mph 21.3 mph 59% 0 in 0 W/m2
17:15 62.8 °F 48.4 °F 29.9 in NNW 12.1 mph 19.7 mph 59% 0 in 0 W/m2
17:20 62.6 °F 48 °F 29.9 in NNW 13 mph 20.6 mph 59% 0 in 0 W/m2
17:25 62.6 °F 48 °F 29.9 in NNW 11.4 mph 21.3 mph 59% 0 in 0 W/m2
17:30 62.4 °F 48.4 °F 29.9 in NW 9.8 mph 21.3 mph 60% 0 in 0 W/m2
17:36 62.2 °F 48.6 °F 29.9 in NW 9.2 mph 18.3 mph 61% 0 in 0 W/m2
17:41 61.9 °F 48.4 °F 29.9 in NW 10.7 mph 16.8 mph 61% 0 in 0 W/m2
17:46 62.1 °F 48.9 °F 29.9 in NW 7.6 mph 15.9 mph 62% 0 in 0 W/m2
17:51 61.5 °F 48.4 °F 29.9 in NW 7.6 mph 15.9 mph 62% 0 in 0 W/m2
17:56 61.5 °F 48.4 °F 29.9 in NW 12.1 mph 15.2 mph 62% 0 in 0 W/m2
18:01 61.5 °F 48.4 °F 29.9 in NW 6 mph 15.2 mph 62% 0 in 0 W/m2
18:06 61.3 °F 48.2 °F 29.9 in NNW 5.4 mph 15.2 mph 62% 0 in 0 W/m2
18:11 61 °F 48.4 °F 29.9 in NNW 6.9 mph 11.4 mph 63% 0 in 0 W/m2
18:16 61 °F 48.4 °F 29.9 in NNW 6 mph 10.7 mph 63% 0 in 0 W/m2
18:21 61 °F 48.4 °F 29.9 in NNW 3.8 mph 10.7 mph 63% 0 in 0 W/m2
18:26 60.6 °F 48.7 °F 29.9 in NW 5.4 mph 9.8 mph 65% 0 in 0 W/m2
18:31 60.6 °F 48.7 °F 29.9 in NNW 2.2 mph 9.2 mph 65% 0 in 0 W/m2
18:36 60.4 °F 48.6 °F 29.9 in NNW 3.8 mph 7.6 mph 65% 0 in 0 W/m2
18:41 60.4 °F 48.9 °F 29.9 in NNW 3.1 mph 6.9 mph 66% 0 in 0 W/m2
18:46 60.3 °F 48.9 °F 29.9 in NNW 3.8 mph 7.6 mph 66% 0 in 0 W/m2
18:51 60.3 °F 48.9 °F 29.9 in North 4.5 mph 10.7 mph 66% 0 in 0 W/m2
18:56 60.3 °F 48.9 °F 29.9 in North 4.5 mph 10.7 mph 66% 0 in 0 W/m2
19:01 60.4 °F 48.9 °F 29.9 in NNW 5.4 mph 9.2 mph 66% 0 in 0 W/m2
19:06 60.4 °F 48.9 °F 29.9 in NW 6.9 mph 10.7 mph 66% 0 in 0 W/m2
19:11 60.4 °F 48.9 °F 29.9 in NNW 5.4 mph 12.1 mph 66% 0 in 0 W/m2
19:16 60.3 °F 48.9 °F 29.9 in NNW 6 mph 12.1 mph 66% 0 in 0 W/m2
19:21 60.4 °F 48.9 °F 29.9 in NNW 6 mph 10.7 mph 66% 0 in 0 W/m2
19:26 60.4 °F 48.9 °F 29.9 in NNW 5.4 mph 14.5 mph 66% 0 in 0 W/m2
19:31 60.6 °F 49.3 °F 29.9 in North 6.9 mph 14.5 mph 66% 0 in 0 W/m2
19:36 60.6 °F 48.7 °F 29.9 in NNW 7.6 mph 13.6 mph 65% 0 in 0 W/m2
19:41 60.6 °F 48.4 °F 29.9 in North 6.9 mph 11.4 mph 64% 0 in 0 W/m2
19:46 61 °F 48.4 °F 29.9 in North 6.9 mph 11.4 mph 63% 0 in 0 W/m2
19:51 61 °F 47.8 °F 29.9 in NNW 6 mph 13 mph 62% 0 in 0 W/m2
19:56 60.6 °F 48 °F 29.9 in NNW 6.9 mph 13 mph 63% 0 in 0 W/m2
20:01 61 °F 47.5 °F 29.9 in NNW 5.4 mph 13 mph 61% 0 in 0 W/m2
20:06 61 °F 47.5 °F 29.9 in NNW 7.6 mph 13 mph 61% 0 in 0 W/m2
20:11 60.6 °F 48 °F 29.9 in NNW 9.2 mph 12.1 mph 63% 0 in 0 W/m2
20:16 60.6 °F 48 °F 29.9 in North 4.5 mph 13 mph 63% 0 in 0 W/m2
20:21 60.4 °F 47.8 °F 29.9 in North 8.3 mph 13 mph 63% 0 in 0 W/m2
20:26 60.4 °F 47.8 °F 29.9 in NNW 9.2 mph 11.4 mph 63% 0 in 0 W/m2
20:31 60.1 °F 47.5 °F 29.9 in NNW 6 mph 11.4 mph 63% 0 in 0 W/m2
20:36 59.9 °F 47.7 °F 29.9 in NNW 5.4 mph 10.7 mph 64% 0 in 0 W/m2
20:41 59.7 °F 47.5 °F 29.9 in North 6 mph 9.2 mph 64% 0 in 0 W/m2
20:46 59.7 °F 47.8 °F 29.9 in NNW 6 mph 10.7 mph 65% 0 in 0 W/m2
20:51 59.5 °F 47.8 °F 29.9 in NNW 4.5 mph 10.7 mph 65% 0 in 0 W/m2
20:56 59.5 °F 47.8 °F 29.9 in NNW 5.4 mph 10.7 mph 65% 0 in 0 W/m2
21:01 59.5 °F 47.8 °F 29.9 in NNW 5.4 mph 11.4 mph 65% 0 in 0 W/m2
21:06 59.4 °F 47.7 °F 29.9 in North 4.5 mph 11.4 mph 65% 0 in 0 W/m2
21:11 59.4 °F 48 °F 29.9 in NNW 8.3 mph 14.5 mph 66% 0 in 0 W/m2
21:16 59.4 °F 48 °F 29.9 in NW 6 mph 14.5 mph 66% 0 in 0 W/m2
21:21 59.4 °F 48 °F 29.9 in NW 4.5 mph 10.7 mph 66% 0 in 0 W/m2
21:26 59 °F 47.7 °F 29.9 in NW 3.8 mph 8.3 mph 66% 0 in 0 W/m2
21:31 59 °F 48 °F 29.9 in NW 3.8 mph 7.6 mph 67% 0 in 0 W/m2
21:36 58.8 °F 48.4 °F 29.9 in NW 3.1 mph 7.6 mph 68% 0 in 0 W/m2
21:41 58.8 °F 48.4 °F 29.9 in NW 2.2 mph 6.9 mph 68% 0 in 0 W/m2
21:46 58.6 °F 48 °F 29.9 in WNW 3.1 mph 6.9 mph 68% 0 in 0 W/m2
21:51 58.3 °F 48.2 °F 29.9 in WNW 2.2 mph 5.4 mph 69% 0 in 0 W/m2
21:56 58.3 °F 48.2 °F 29.9 in Calm   5.4 mph 69% 0 in 0 W/m2
22:01 57.7 °F 47.7 °F 29.9 in Calm   3.8 mph 69% 0 in 0 W/m2
22:06 57.2 °F 47.1 °F 29.9 in Calm     69% 0 in 0 W/m2
22:11 56.8 °F 47.8 °F 29.9 in Calm     72% 0 in 0 W/m2
22:16 56.8 °F 47.8 °F 29.9 in Calm     72% 0 in 0 W/m2
22:21 56.7 °F 47.7 °F 29.9 in ENE 1.6 mph 2.2 mph 72% 0 in 0 W/m2
22:26 56.5 °F 47.8 °F 29.9 in Calm   2.2 mph 73% 0 in 0 W/m2
22:31 56.1 °F 48 °F 29.9 in NE 0.7 mph 3.1 mph 74% 0 in 0 W/m2
22:36 55.9 °F 48 °F 29.9 in Calm   3.1 mph 75% 0 in 0 W/m2
22:41 55.8 °F 48 °F 29.9 in North 1.6 mph 3.1 mph 75% 0 in 0 W/m2
22:46 55.6 °F 47.8 °F 29.9 in Calm   2.2 mph 75% 0 in 0 W/m2
22:51 55.6 °F 47.8 °F 29.9 in Calm   2.2 mph 75% 0 in 0 W/m2
22:56 55.6 °F 47.8 °F 29.9 in Calm   2.2 mph 75% 0 in 0 W/m2
23:01 55.4 °F 47.7 °F 29.9 in North 0.7 mph 3.1 mph 75% 0 in 0 W/m2
23:06 55 °F 47.3 °F 29.9 in North 0.7 mph 3.1 mph 75% 0 in 0 W/m2
23:11 54.9 °F 47.5 °F 29.9 in Calm   2.2 mph 76% 0 in 0 W/m2
23:16 54.9 °F 47.8 °F 29.9 in NW 0.7 mph 2.2 mph 77% 0 in 0 W/m2
23:33 54.3 °F 48 °F 29.9 in Calm   1.6 mph 79% 0 in 0 W/m2
23:38 54 °F 47.7 °F 29.9 in WNW 3.1 mph 3.8 mph 79% 0 in 0 W/m2
23:43 54.1 °F 48 °F 29.9 in Calm   3.8 mph 80% 0 in 0 W/m2
23:48 54 °F 47.8 °F 29.9 in NNW 0.7 mph 3.8 mph 80% 0 in 0 W/m2
23:53 53.8 °F 47.8 °F 29.9 in ENE 1.6 mph 2.2 mph 80% 0 in 0 W/m2
23:58 53.6 °F 47.7 °F 29.9 in East 1.6 mph 2.2 mph 80% 0 in 0 W/m2
Northern Hawkes Bay. New Zealand Historic Data
Compliments of Weather Underground - 2 mb